MUC | München Airways

 METAR UND TAF INFORMATION

METAR FOR HEGN
ADDS - METARS form results

(1940 UTC 22 May 2019)
Data provider http://aviationweather.gov/metar/data/
 
METAR text: HEGN 221900Z 00000KT CAVOK 33/10 Q1011 NOSIG
Conditions at: HEGN (HURGUADA , EG) observed 1900 UTC 22 May 2019
Temperature: 33.0°C (91°F)
Dewpoint: 10.0°C (50°F) [RH = 24%]
Pressure (altimeter): 29.85 inches Hg (1011.0 mb)
Winds: calm
Visibility: 6 or more miles (10+ km)
Ceiling: ceiling and visibility are OK
Clouds: unknown
Weather: no significant weather observed at this time

Forecast for: HEGN (HURGUADA , EG)
Text: TAF HEGN 221700Z 2218/2324 09010KT CAVOK
Forecast period: 1800 UTC 22 May 2019 to 0000 UTC 24 May 2019
Forecast type: FROM: standard forecast or significant change
Winds: from the E (90 degrees) at 12 MPH (10 knots; 5.1 m/s)
Visibility: 6 or more miles 10+ km)
Ceiling: unknown
Clouds: missing
Weather: NSW  (no significant weather)

 FLUGHAFENKARTE

 RUNWAY INFORMATION
Runway 16 Runway length 13124 ft Runway width 148 ft
Runway elevation 50 ft Runway displaced threshold 985 ft Runway heading 165
Runway 34 Runway length 13124 ft Runway width 148 ft
Runway elevation 35 ft Runway displaced threshold 0 ft Runway heading 345

 AIRPORT FREQUENCIES
Type APP Name RADAR Frequency 123.4 MHZ
Type GND Name GND Frequency 121.9 MHZ
Type RDO Name RDO Frequency 585.9 MHZ
Type TWR Name TWR Frequency 119.6 MHZ

 AIRPORT NEAR NAVIGATION AIDS
Type VOR-DME Name Hurghada Frequency 116500 KHZ